Time;durP1;ratioP1;P1;durP2;ratioP2;P2;SDS_P1;SDS_P2;PMS_P1;PMS_P2;Temp;Humidity;BMP_temperature;BMP_pressure;BME280_temperature;BME280_humidity;BME280_pressure;Samples;Min_cycle;Max_cycle;Signal;HPM_P1;HPM_P2
2021/04/06 00:00:22;;;;;;;16.46;8.27;;;;;;;4.18;53.23;97929.98;354665;113;1962890;-72
2021/04/06 00:01:44;;;;;;;14.42;8.18;;;;;;;4.17;53.25;97931.00;353626;111;1961086;-73
2021/04/06 00:02:52;;;;;;;16.41;8.60;;;;;;;4.19;53.35;97928.95;328130;112;2538894;-73
2021/04/06 00:03:59;;;;;;;14.29;8.22;;;;;;;4.23;53.39;97928.53;358207;113;1961984;-73
2021/04/06 00:05:08;;;;;;;14.05;8.19;;;;;;;4.23;53.48;97937.36;353681;112;1962034;-73
2021/04/06 00:06:15;;;;;;;15.34;8.67;;;;;;;4.22;53.40;97927.71;327332;115;1963007;-74
2021/04/06 00:07:22;;;;;;;20.01;9.40;;;;;;;4.23;53.34;97925.85;348861;114;1964440;-73
2021/04/06 00:08:30;;;;;;;14.59;8.60;;;;;;;4.24;53.40;97947.04;325091;112;1961987;-73
2021/04/06 00:09:38;;;;;;;14.99;8.23;;;;;;;4.22;53.45;97919.69;354974;112;1961984;-74
2021/04/06 00:10:53;;;;;;;14.93;8.21;;;;;;;4.24;53.43;97920.31;350247;114;1962048;-74
2021/04/06 00:12:02;;;;;;;13.75;7.94;;;;;;;4.24;53.43;97922.98;356307;110;1959655;-72
2021/04/06 00:13:08;;;;;;;15.53;9.12;;;;;;;4.25;53.48;97924.62;350337;111;1961966;-72
2021/04/06 00:14:16;;;;;;;14.67;8.47;;;;;;;4.25;53.43;97937.16;356500;111;1963995;-72
2021/04/06 00:15:23;;;;;;;13.92;7.90;;;;;;;4.25;53.47;97929.15;328273;114;1962016;-71
2021/04/06 00:16:41;;;;;;;15.12;7.76;;;;;;;4.24;53.61;97927.52;350020;114;1962034;-72
2021/04/06 00:17:48;;;;;;;16.37;8.15;;;;;;;4.24;53.57;97931.00;349592;114;1962098;-72
2021/04/06 00:18:55;;;;;;;15.63;8.78;;;;;;;4.27;53.66;97938.60;329165;115;2303978;-72
2021/04/06 00:20:04;;;;;;;15.09;8.83;;;;;;;4.27;53.63;97929.77;342171;116;1961953;-72
2021/04/06 00:21:11;;;;;;;15.94;9.83;;;;;;;4.25;53.67;97929.96;355714;112;1961948;-72
2021/04/06 00:22:19;;;;;;;16.87;8.27;;;;;;;4.26;53.68;97928.95;355210;112;1965096;-72
2021/04/06 00:23:26;;;;;;;16.51;7.95;;;;;;;4.25;53.61;97927.29;356448;112;1963977;-72
2021/04/06 00:24:36;;;;;;;15.00;9.29;;;;;;;4.26;53.85;97915.59;329061;112;2501906;-71
2021/04/06 00:25:45;;;;;;;14.64;8.62;;;;;;;4.24;53.77;97922.98;355113;112;1961957;-71
2021/04/06 00:26:55;;;;;;;14.41;8.31;;;;;;;4.25;53.74;97915.78;312249;112;2815971;-74
2021/04/06 00:28:05;;;;;;;16.49;8.26;;;;;;;4.21;53.77;97918.06;310971;112;2811960;-72
2021/04/06 00:29:12;;;;;;;18.10;9.29;;;;;;;4.21;53.83;97917.22;307925;112;2876024;-73
2021/04/06 00:30:26;;;;;;;16.96;9.49;;;;;;;4.18;53.87;97913.11;310573;114;2912996;-73
2021/04/06 00:31:32;;;;;;;15.87;8.54;;;;;;;4.16;54.00;97921.34;349308;112;1962036;-72
2021/04/06 00:32:40;;;;;;;16.46;9.46;;;;;;;4.13;53.97;97911.08;355353;112;1961980;-70
2021/04/06 00:33:49;;;;;;;16.82;10.01;;;;;;;4.11;54.09;97910.46;355821;112;1961979;-71
2021/04/06 00:34:58;;;;;;;15.26;9.37;;;;;;;4.11;54.19;97906.97;331852;112;1963954;-72
2021/04/06 00:36:04;;;;;;;17.96;11.02;;;;;;;4.10;54.49;97905.31;323059;112;2216943;-72
2021/04/06 00:37:14;;;;;;;17.84;11.25;;;;;;;4.10;54.26;97903.48;355353;112;1961892;-72
2021/04/06 00:38:21;;;;;;;19.06;10.71;;;;;;;4.10;54.36;97916.00;356061;112;1962030;-71
2021/04/06 00:39:31;;;;;;;16.59;11.13;;;;;;;4.08;54.27;97912.73;356335;112;1961998;-72
2021/04/06 00:40:44;;;;;;;17.21;10.76;;;;;;;4.06;54.32;97907.59;333856;112;1962011;-71
2021/04/06 00:41:50;;;;;;;16.14;10.66;;;;;;;4.07;54.37;97911.08;355465;114;1961933;-72
2021/04/06 00:43:06;;;;;;;19.24;12.70;;;;;;;4.04;54.54;97909.64;334914;112;2388366;-72
2021/04/06 00:44:13;;;;;;;17.31;11.02;;;;;;;2.81;54.45;97709.91;339804;110;1960696;-71
2021/04/06 00:45:22;;;;;;;18.13;11.12;;;;;;;4.04;54.57;97906.97;343606;116;1960963;-72
2021/04/06 00:46:29;;;;;;;16.22;10.76;;;;;;;4.05;54.55;97913.13;355789;112;1961926;-71
2021/04/06 00:47:35;;;;;;;18.87;11.98;;;;;;;4.04;54.58;97914.98;341091;112;2245939;-71
2021/04/06 00:48:43;;;;;;;15.06;9.99;;;;;;;4.03;54.59;97907.19;355756;112;1962013;-71
2021/04/06 00:49:49;;;;;;;15.77;9.89;;;;;;;4.02;54.68;97910.88;341087;112;2237998;-72
2021/04/06 00:51:14;;;;;;;15.66;9.48;;;;;;;4.04;54.80;97912.31;354750;112;1962011;-72
2021/04/06 00:52:23;;;;;;;16.49;10.26;;;;;;;4.04;54.68;97906.97;354902;112;1962881;-72
2021/04/06 00:53:57;;;;;;;17.83;9.76;;;;;;;4.04;54.65;97900.80;340624;112;1961832;-71
2021/04/06 00:55:03;;;;;;;14.89;8.21;;;;;;;4.02;54.78;97898.33;338530;114;1961930;-71
2021/04/06 00:56:15;;;;;;;17.41;9.35;;;;;;;4.04;54.63;97903.48;349051;114;1962036;-71
2021/04/06 00:57:25;;;;;;;16.08;10.31;;;;;;;4.03;54.67;97902.66;311413;115;2951959;-71
2021/04/06 00:58:34;;;;;;;16.44;9.86;;;;;;;4.03;54.73;97902.66;324210;114;2464950;-71
2021/04/06 00:59:46;;;;;;;15.66;9.79;;;;;;;4.00;54.75;97900.41;302834;114;2868969;-71
2021/04/06 01:00:54;;;;;;;18.63;9.92;;;;;;;3.98;54.89;97899.79;339870;116;1961932;-72
2021/04/06 01:02:08;;;;;;;17.30;9.72;;;;;;;3.94;54.85;97896.72;319928;112;2009766;-72
2021/04/06 01:03:18;;;;;;;14.86;9.48;;;;;;;3.96;54.98;97904.51;334141;114;2266001;-72
2021/04/06 01:04:27;;;;;;;18.33;10.34;;;;;;;3.95;54.95;97905.55;321432;112;1998891;-72
2021/04/06 01:05:36;;;;;;;16.44;10.82;;;;;;;3.96;55.05;97899.17;355842;112;1962043;-72
2021/04/06 01:07:11;;;;;;;17.82;9.76;;;;;;;3.94;55.05;97907.41;322264;112;2636034;-72
2021/04/06 01:08:17;;;;;;;16.93;9.88;;;;;;;3.93;55.07;97905.74;323646;112;2604997;-72
2021/04/06 01:09:44;;;;;;;16.74;10.06;;;;;;;3.92;55.08;97909.45;337524;112;1962353;-72
2021/04/06 01:10:50;;;;;;;17.02;10.11;;;;;;;3.91;55.10;97906.98;349139;114;1962020;-71
2021/04/06 01:11:55;;;;;;;19.77;10.67;;;;;;;3.90;55.25;97906.16;327816;114;2419017;-72
2021/04/06 01:13:02;;;;;;;18.03;10.14;;;;;;;3.89;55.21;97909.88;328300;114;1962960;-72
2021/04/06 01:14:17;;;;;;;16.54;9.27;;;;;;;3.87;55.31;97906.58;357177;110;1964997;-72
2021/04/06 01:15:24;;;;;;;18.22;9.73;;;;;;;3.86;55.32;97907.59;355838;113;1961980;-72
2021/04/06 01:16:31;;;;;;;17.88;10.12;;;;;;;3.87;55.28;97909.25;358830;113;1963941;-71
2021/04/06 01:17:38;;;;;;;16.41;9.29;;;;;;;3.87;55.29;97905.77;359457;111;1962003;-72
2021/04/06 01:18:44;;;;;;;14.81;8.59;;;;;;;3.86;55.38;97906.77;330764;114;1961966;-72
2021/04/06 01:19:50;;;;;;;15.89;9.13;;;;;;;3.87;55.45;97905.77;363697;111;1962230;-72
2021/04/06 01:20:56;;;;;;;17.99;9.89;;;;;;;3.86;55.41;97909.44;364995;111;1962054;-71
2021/04/06 01:22:11;;;;;;;15.35;9.16;;;;;;;3.84;55.49;97903.51;329112;111;2608022;-71
2021/04/06 01:23:19;;;;;;;17.46;9.22;;;;;;;3.86;55.51;97898.76;329857;111;2225966;-72
2021/04/06 01:24:27;;;;;;;16.14;10.57;;;;;;;3.86;55.43;97909.44;363623;111;1962193;-73
2021/04/06 01:25:34;;;;;;;17.91;9.54;;;;;;;3.85;55.47;97905.95;362940;111;1964001;-73
2021/04/06 01:26:41;;;;;;;17.52;10.21;;;;;;;3.85;55.48;97908.62;318151;111;2854000;-72
2021/04/06 01:27:46;;;;;;;17.26;9.29;;;;;;;3.85;55.54;97905.95;362930;111;1963010;-72
2021/04/06 01:28:51;;;;;;;18.42;9.90;;;;;;;3.84;55.63;97907.00;365051;111;1961944;-73
2021/04/06 01:29:57;;;;;;;17.92;9.87;;;;;;;3.85;55.62;97905.95;364503;111;1962022;-72
2021/04/06 01:31:06;;;;;;;16.12;8.64;;;;;;;3.86;55.57;97902.24;364984;111;1962044;-73
2021/04/06 01:32:13;;;;;;;16.29;9.74;;;;;;;3.87;55.61;97911.92;365077;111;1962009;-72
2021/04/06 01:33:22;;;;;;;17.66;9.57;;;;;;;3.88;55.59;97902.05;360782;111;1961974;-72
2021/04/06 01:34:29;;;;;;;16.84;9.33;;;;;;;3.89;55.57;97901.86;328701;111;2655741;-72
2021/04/06 01:35:52;;;;;;;14.85;8.84;;;;;;;3.92;55.63;97904.11;364701;111;1961938;-72
2021/04/06 01:36:58;;;;;;;16.44;8.74;;;;;;;3.93;55.54;97910.27;356562;112;1961975;-72
2021/04/06 01:38:04;;;;;;;16.32;9.80;;;;;;;3.91;55.54;97898.96;358100;112;1962060;-72
2021/04/06 01:39:16;;;;;;;16.74;9.53;;;;;;;3.81;55.71;97893.21;358867;111;1961965;-72
2021/04/06 01:40:21;;;;;;;16.39;9.66;;;;;;;3.90;55.58;97894.66;351896;112;1961900;-72
2021/04/06 01:41:27;;;;;;;14.30;8.89;;;;;;;3.90;55.64;97902.67;358888;112;1961950;-72
2021/04/06 01:42:36;;;;;;;17.42;10.03;;;;;;;3.90;55.63;97900.00;358920;112;1961932;-72
2021/04/06 01:43:47;;;;;;;17.28;10.06;;;;;;;3.92;55.62;97900.62;359262;112;1962011;-72
2021/04/06 01:44:53;;;;;;;15.04;8.73;;;;;;;3.88;55.60;97896.70;342235;112;2266991;-72
2021/04/06 01:46:17;;;;;;;16.02;9.53;;;;;;;3.90;55.64;97906.16;323916;112;2642973;-73
2021/04/06 01:47:16;;;;;;;15.96;9.52;;;;;;;3.90;55.67;97903.48;323721;112;2614932;-72
2021/04/06 01:48:22;;;;;;;15.86;9.81;;;;;;;3.89;55.75;97904.53;359344;110;1962908;-72
2021/04/06 01:49:28;;;;;;;18.73;10.26;;;;;;;3.91;55.60;97907.80;335401;112;2426988;-72
2021/04/06 01:50:36;;;;;;;16.86;9.29;;;;;;;3.93;55.65;97904.93;358812;112;1964175;-72
2021/04/06 01:51:42;;;;;;;15.91;9.97;;;;;;;3.91;55.66;97917.66;326543;112;2215008;-71
2021/04/06 01:52:50;;;;;;;17.08;9.88;;;;;;;3.92;55.75;97914.80;359083;112;1961957;-72
2021/04/06 01:53:55;;;;;;;16.76;10.40;;;;;;;3.93;55.76;97911.09;358081;112;1962012;-72
2021/04/06 01:55:08;;;;;;;16.71;9.41;;;;;;;3.95;55.67;97910.89;336442;112;2370912;-72
2021/04/06 01:56:13;;;;;;;16.12;8.93;;;;;;;3.94;55.67;97907.41;358583;112;1962012;-73
2021/04/06 01:57:23;;;;;;;16.19;10.32;;;;;;;3.94;55.73;97901.22;359386;112;1962043;-72
2021/04/06 01:58:30;;;;;;;14.98;9.38;;;;;;;3.92;55.74;97906.78;360029;112;1961886;-72
2021/04/06 01:59:41;;;;;;;16.44;9.08;;;;;;;3.92;55.79;97898.77;359249;112;1961989;-72
2021/04/06 02:01:33;;;;;;;20.42;9.54;;;;;;;3.88;55.79;97897.52;359229;112;1961887;-72
2021/04/06 02:01:57;;;;;;;15.20;9.66;;;;;;;3.89;55.95;97895.67;348580;112;1962999;-72
2021/04/06 02:03:08;;;;;;;19.01;9.32;;;;;;;3.85;55.92;97902.47;324960;112;2620947;-72
2021/04/06 02:04:16;;;;;;;19.69;10.03;;;;;;;3.81;56.01;97895.88;324961;112;2963938;-72
2021/04/06 02:05:24;;;;;;;16.05;9.58;;;;;;;3.80;56.17;97899.59;319656;111;2720958;-72
2021/04/06 02:06:36;;;;;;;18.65;9.96;;;;;;;3.77;56.24;97887.47;333472;115;2269963;-72
2021/04/06 02:07:44;;;;;;;16.71;11.31;;;;;;;3.75;56.34;97898.34;329638;115;2218982;-72
2021/04/06 02:08:51;;;;;;;19.87;10.35;;;;;;;3.72;56.32;97896.09;348390;115;1962030;-73
2021/04/06 02:09:59;;;;;;;17.32;10.12;;;;;;;3.70;56.38;97890.13;342110;117;1964034;-72
2021/04/06 02:11:05;;;;;;;14.97;9.28;;;;;;;3.71;56.43;97899.80;302864;117;2773982;-71
2021/04/06 02:12:10;;;;;;;19.73;9.82;;;;;;;3.73;56.45;97888.89;343292;116;1961934;-72
2021/04/06 02:13:16;;;;;;;17.67;10.61;;;;;;;3.71;56.53;97890.98;342542;117;1961998;-71
2021/04/06 02:14:24;;;;;;;17.00;10.83;;;;;;;3.71;56.43;97897.13;342850;116;1961920;-71
2021/04/06 02:15:29;;;;;;;15.72;9.74;;;;;;;3.62;56.51;97886.84;342494;117;1962003;-71
2021/04/06 02:16:53;;;;;;;17.53;9.65;;;;;;;3.68;56.49;97900.22;343174;117;1962939;-72
2021/04/06 02:17:58;;;;;;;19.48;10.99;;;;;;;3.67;56.65;97893.21;342462;117;1961976;-71
2021/04/06 02:19:03;;;;;;;16.91;9.67;;;;;;;3.66;56.71;97885.42;343044;116;1962054;-71
2021/04/06 02:20:20;;;;;;;17.64;9.86;;;;;;;3.65;56.78;97891.77;343337;117;1961977;-71
2021/04/06 02:21:28;;;;;;;20.19;11.23;;;;;;;3.63;56.74;97886.66;342847;117;1961854;-72
2021/04/06 02:22:34;;;;;;;22.63;11.78;;;;;;;3.61;56.75;97886.03;342810;117;1961986;-72
2021/04/06 02:23:43;;;;;;;19.58;12.15;;;;;;;3.62;56.81;97887.66;324947;116;2313904;-71
2021/04/06 02:24:51;;;;;;;18.04;10.64;;;;;;;3.62;56.82;97886.84;341954;116;1961953;-72
2021/04/06 02:25:56;;;;;;;17.86;11.36;;;;;;;3.62;56.83;97887.66;341723;117;1961892;-71
2021/04/06 02:27:19;;;;;;;19.72;11.15;;;;;;;3.62;56.83;97884.18;342755;118;1963931;-71
2021/04/06 02:28:25;;;;;;;;;;;;;;;3.61;56.85;97883.36;337091;117;1961835;-71
2021/04/06 02:29:30;;;;;;;18.24;9.81;;;;;;;3.59;56.96;97890.75;342784;116;1961010;-72
2021/04/06 02:30:36;;;;;;;18.79;10.06;;;;;;;3.63;56.92;97888.52;342917;117;1961948;-72
2021/04/06 02:31:42;;;;;;;18.76;9.97;;;;;;;3.64;56.77;97893.62;312130;110;2601000;-72
2021/04/06 02:32:47;;;;;;;19.31;11.31;;;;;;;3.63;56.84;97897.34;308133;117;1962987;-72
2021/04/06 02:33:52;;;;;;;18.48;10.61;;;;;;;3.65;56.87;97887.28;340867;117;1961977;-69
2021/04/06 02:35:06;;;;;;;20.61;11.19;;;;;;;3.67;56.88;97887.88;334425;119;1962034;-71
2021/04/06 02:36:14;;;;;;;19.56;11.23;;;;;;;3.68;56.79;97881.52;333010;120;1962038;-72
2021/04/06 02:37:22;;;;;;;18.88;10.18;;;;;;;3.71;56.75;97885.63;320386;117;2356994;-73
2021/04/06 02:38:31;;;;;;;17.58;10.57;;;;;;;3.73;56.67;97887.08;338984;118;1963993;-72
2021/04/06 02:39:39;;;;;;;16.69;10.08;;;;;;;3.75;56.64;97892.19;295940;117;2815022;-71
2021/04/06 02:40:45;;;;;;;19.80;10.18;;;;;;;3.76;56.58;97883.17;338828;118;1963026;-72
2021/04/06 02:41:50;;;;;;;20.43;11.42;;;;;;;3.79;56.57;97895.29;340769;119;1962005;-72
2021/04/06 02:42:58;;;;;;;18.28;10.14;;;;;;;3.79;56.56;97892.63;340393;118;1961934;-72
2021/04/06 02:44:04;;;;;;;19.71;10.77;;;;;;;3.77;56.59;97887.47;321333;117;1961967;-72
2021/04/06 02:45:23;;;;;;;17.41;10.31;;;;;;;3.79;56.54;97884.61;338920;117;1962015;-71
2021/04/06 02:46:30;;;;;;;17.74;11.38;;;;;;;3.79;56.47;97885.42;339267;117;1963045;-72
2021/04/06 02:47:45;;;;;;;19.90;11.16;;;;;;;3.80;56.43;97886.23;340334;117;1961945;-71
2021/04/06 02:48:57;;;;;;;17.80;10.59;;;;;;;3.77;56.57;97889.33;297323;120;2688985;-72
2021/04/06 02:50:04;;;;;;;;;;;;;;;3.79;56.42;97893.44;343830;117;1959671;-71
2021/04/06 02:51:10;;;;;;;19.39;10.52;;;;;;;3.80;56.39;97894.25;333420;119;1960929;-71
2021/04/06 02:52:15;;;;;;;21.99;11.38;;;;;;;3.78;56.38;97886.44;315368;119;1962030;-71
2021/04/06 02:53:21;;;;;;;17.24;10.08;;;;;;;3.78;56.37;97882.95;340280;118;1962020;-72
2021/04/06 02:54:26;;;;;;;22.72;11.03;;;;;;;3.80;56.39;97899.59;339181;118;1963067;-71
2021/04/06 02:55:34;;;;;;;19.79;10.82;;;;;;;3.79;56.37;97890.77;340174;117;1963064;-71
2021/04/06 02:56:39;;;;;;;19.43;11.61;;;;;;;3.81;56.28;97893.21;339106;118;1964937;-71
2021/04/06 02:57:47;;;;;;;24.06;11.27;;;;;;;3.79;56.34;97890.77;339381;117;1962029;-72
2021/04/06 02:58:53;;;;;;;20.46;11.95;;;;;;;3.79;56.36;97887.28;317599;117;1961926;-72
2021/04/06 02:59:58;;;;;;;22.17;12.48;;;;;;;3.80;56.35;97889.73;339772;118;1962960;-72
2021/04/06 03:01:12;;;;;;;21.87;12.67;;;;;;;3.83;56.23;97883.15;340251;117;1963033;-72
2021/04/06 03:02:17;;;;;;;21.01;13.19;;;;;;;3.84;56.24;97880.29;340155;117;1962003;-71
2021/04/06 03:03:25;;;;;;;23.23;11.04;;;;;;;3.83;56.20;97883.97;339110;117;1961982;-72
2021/04/06 03:04:30;;;;;;;19.89;10.92;;;;;;;3.85;56.19;97876.58;325099;117;2252955;-72
2021/04/06 03:05:38;;;;;;;23.76;12.93;;;;;;;3.85;56.17;97881.10;321232;117;1963014;-71
2021/04/06 03:06:44;;;;;;;18.51;11.12;;;;;;;3.87;56.17;97881.72;304479;120;2538041;-72
2021/04/06 03:07:51;;;;;;;23.14;12.13;;;;;;;3.89;56.07;97876.97;332413;119;1962110;-71
2021/04/06 03:08:59;;;;;;;23.81;12.40;;;;;;;3.90;56.05;97882.13;340420;117;1961948;-71
2021/04/06 03:10:05;;;;;;;24.83;13.14;;;;;;;3.88;55.99;97884.17;338721;117;1961931;-71
2021/04/06 03:11:12;;;;;;;20.02;11.48;;;;;;;3.90;56.05;97881.30;328774;120;1961881;-72
2021/04/06 03:12:18;;;;;;;18.18;10.39;;;;;;;3.90;55.98;97890.13;308629;117;2604940;-71
2021/04/06 03:13:26;;;;;;;18.15;10.84;;;;;;;3.91;55.99;97885.61;331698;122;1964015;-72
2021/04/06 03:14:32;;;;;;;21.22;11.74;;;;;;;3.92;55.94;97887.27;319633;117;2232957;-72
2021/04/06 03:15:40;;;;;;;20.68;11.66;;;;;;;3.93;55.87;97881.70;333249;119;1964006;-72
2021/04/06 03:16:49;;;;;;;21.82;10.97;;;;;;;3.95;55.87;97884.18;292268;119;2807477;-72
2021/04/06 03:17:57;;;;;;;21.13;11.23;;;;;;;3.96;55.82;97883.95;293696;119;2789002;-72
2021/04/06 03:19:04;;;;;;;21.27;11.12;;;;;;;3.97;55.75;97887.47;332581;121;1962043;-72
2021/04/06 03:20:22;;;;;;;19.07;10.96;;;;;;;3.99;55.76;97888.06;291490;117;2221237;-72
2021/04/06 03:21:28;;;;;;;21.61;10.73;;;;;;;4.01;55.70;97894.03;355932;111;1961931;-71
2021/04/06 03:22:35;;;;;;;18.52;11.62;;;;;;;4.02;55.68;97895.66;343044;113;1963817;-72
2021/04/06 03:23:41;;;;;;;22.34;10.70;;;;;;;4.03;55.63;97889.30;354304;112;1960960;-72
2021/04/06 03:24:49;;;;;;;20.41;11.01;;;;;;;4.05;55.53;97894.42;353552;113;1961788;-72
2021/04/06 03:25:55;;;;;;;20.36;11.71;;;;;;;4.05;55.52;97892.59;363159;111;1960809;-72
2021/04/06 03:27:06;;;;;;;20.74;11.53;;;;;;;4.07;55.52;97897.72;362679;111;1961076;-72
2021/04/06 03:28:17;;;;;;;24.67;12.47;;;;;;;4.06;55.51;97894.23;325231;111;2676012;-72
2021/04/06 03:29:22;;;;;;;19.94;10.77;;;;;;;4.07;55.46;97898.53;362297;111;1961987;-72
2021/04/06 03:30:37;;;;;;;19.93;10.53;;;;;;;4.11;55.38;97898.95;361473;111;1961924;-72
2021/04/06 03:31:42;;;;;;;18.65;11.02;;;;;;;4.10;55.37;97902.64;360855;111;1961914;-73
2021/04/06 03:32:48;;;;;;;16.32;10.23;;;;;;;4.10;55.37;97899.97;361711;111;1961910;-72
2021/04/06 03:33:56;;;;;;;20.43;10.44;;;;;;;4.12;55.29;97892.57;361688;111;1962045;-72
2021/04/06 03:35:02;;;;;;;19.48;10.17;;;;;;;4.14;55.27;97904.70;361175;111;1962133;-72
2021/04/06 03:36:11;;;;;;;20.96;11.98;;;;;;;4.16;55.14;97894.62;362873;111;1961968;-73
2021/04/06 03:37:17;;;;;;;17.84;11.66;;;;;;;4.15;55.18;97902.84;359443;111;1962052;-72
2021/04/06 03:38:24;;;;;;;18.92;11.37;;;;;;;4.16;55.14;97902.64;361396;111;1964043;-71
2021/04/06 03:39:32;;;;;;;19.09;10.67;;;;;;;4.17;55.11;97909.62;359813;111;1961940;-73
2021/04/06 03:40:40;;;;;;;21.62;12.07;;;;;;;4.18;55.11;97903.27;362119;111;1962028;-72
2021/04/06 03:41:46;;;;;;;22.82;12.88;;;;;;;4.21;55.09;97898.51;360661;111;1961968;-71
2021/04/06 03:42:51;;;;;;;27.61;13.76;;;;;;;4.19;55.08;97896.06;342894;111;2304090;-71
2021/04/06 03:44:12;;;;;;;22.44;12.06;;;;;;;4.22;55.06;97895.64;346102;111;1964040;-72
2021/04/06 03:45:18;;;;;;;21.61;12.03;;;;;;;4.24;54.98;97893.59;360159;111;1961862;-71
2021/04/06 03:46:25;;;;;;;22.97;11.86;;;;;;;4.25;54.94;97903.23;361051;111;1962066;-72
2021/04/06 03:47:53;;;;;;;26.33;12.63;;;;;;;4.26;54.93;97896.03;342907;111;1962984;-71
2021/04/06 03:49:15;;;;;;;24.01;13.46;;;;;;;4.27;54.88;97892.35;360890;111;1962041;-72
2021/04/06 03:50:37;;;;;;;;;;;;;;;4.29;54.90;97895.64;363704;111;1960957;-72
2021/04/06 03:51:49;;;;;;;24.29;12.82;;;;;;;4.28;54.91;97899.33;360724;111;1960952;-72
2021/04/06 03:53:03;;;;;;;24.22;12.96;;;;;;;4.28;54.91;97892.13;354199;114;1962973;-72
2021/04/06 03:54:08;;;;;;;23.05;13.36;;;;;;;4.29;55.03;97898.31;329491;114;1961990;-72
2021/04/06 03:55:17;;;;;;;24.26;12.93;;;;;;;4.29;54.88;97904.48;349895;116;1962042;-71
2021/04/06 03:56:30;;;;;;;23.19;13.43;;;;;;;4.31;54.88;97890.88;335042;116;1962005;-71
2021/04/06 03:57:52;;;;;;;21.58;12.58;;;;;;;4.33;54.81;97894.99;346912;112;1962947;31
2021/04/06 03:58:57;;;;;;;23.41;12.71;;;;;;;4.35;54.80;97895.61;341506;117;1963983;-71
2021/04/06 04:00:04;;;;;;;20.07;11.94;;;;;;;4.37;54.70;97892.74;300314;115;2201605;-72
2021/04/06 04:01:14;;;;;;;25.03;13.70;;;;;;;4.38;54.58;97897.86;311373;115;2215986;-72
2021/04/06 04:02:21;;;;;;;18.94;13.22;;;;;;;4.38;54.58;97905.06;322385;117;2884011;-72
2021/04/06 04:03:26;;;;;;;26.47;12.87;;;;;;;4.40;54.56;97905.69;332301;119;1961982;-71
2021/04/06 04:04:33;;;;;;;24.71;13.04;;;;;;;4.40;54.57;97900.34;348616;115;1962030;-72
2021/04/06 04:05:38;;;;;;;20.84;12.73;;;;;;;4.40;54.59;97903.01;297098;117;2800005;-72
2021/04/06 04:06:46;;;;;;;21.81;12.20;;;;;;;4.40;54.60;97901.16;340142;117;1962828;-72
2021/04/06 04:07:52;;;;;;;21.63;12.03;;;;;;;4.41;54.57;97892.09;332929;120;1961993;-72
2021/04/06 04:08:57;;;;;;;23.10;12.94;;;;;;;4.41;54.56;97897.44;299889;120;2667984;-72
2021/04/06 04:10:05;;;;;;;21.57;12.24;;;;;;;4.44;54.51;97906.89;321938;115;1960753;-72
2021/04/06 04:11:10;;;;;;;23.81;12.16;;;;;;;4.44;54.41;97901.55;347444;115;1963865;-72
2021/04/06 04:12:16;;;;;;;19.91;10.99;;;;;;;4.45;54.43;97903.20;311399;115;2646999;-72
2021/04/06 04:13:21;;;;;;;21.43;12.44;;;;;;;4.48;54.31;97900.11;316539;117;1962013;-72
2021/04/06 04:14:27;;;;;;;24.62;14.67;;;;;;;4.48;54.30;97908.12;333962;119;1962086;-73
2021/04/06 04:15:32;;;;;;;23.19;12.89;;;;;;;4.48;54.43;97912.66;337193;118;1961985;-72
2021/04/06 04:16:39;;;;;;;17.52;11.09;;;;;;;4.50;54.31;97914.09;346846;115;1961978;-73
2021/04/06 04:17:55;;;;;;;16.89;10.64;;;;;;;4.52;54.17;97909.33;334043;115;2217085;-72
2021/04/06 04:19:00;;;;;;;19.59;10.66;;;;;;;4.54;53.95;97912.63;363400;110;1962032;-73
2021/04/06 04:20:09;;;;;;;18.88;9.09;;;;;;;4.58;53.82;97913.05;361276;110;1964096;-72
2021/04/06 04:21:15;;;;;;;18.63;10.17;;;;;;;4.61;53.67;97915.30;351240;113;1961950;-72
2021/04/06 04:22:20;;;;;;;18.50;11.21;;;;;;;4.63;53.57;97914.05;351928;113;1962029;-72
2021/04/06 04:23:25;;;;;;;22.76;11.11;;;;;;;4.65;53.51;97919.17;352758;113;1963914;-71
2021/04/06 04:24:31;;;;;;;16.60;10.07;;;;;;;4.66;53.51;97920.83;353780;113;1961956;-72
2021/04/06 04:25:37;;;;;;;17.55;10.12;;;;;;;4.69;53.45;97924.94;331715;113;2392904;-72
2021/04/06 04:26:44;;;;;;;19.20;10.22;;;;;;;4.72;53.38;97913.81;352853;115;1961996;-72
2021/04/06 04:27:51;;;;;;;17.59;10.56;;;;;;;4.72;53.35;97909.28;363298;110;1961892;-72
2021/04/06 04:28:56;;;;;;;16.43;10.27;;;;;;;4.76;53.25;97906.99;357462;110;1962149;-72
2021/04/06 04:30:04;;;;;;;18.29;10.72;;;;;;;4.77;53.24;97903.30;360365;110;1961791;-72
2021/04/06 04:31:12;;;;;;;20.21;11.48;;;;;;;4.80;53.18;97910.90;361780;110;1963054;-72
2021/04/06 04:32:17;;;;;;;22.02;10.91;;;;;;;4.83;53.16;97905.13;364388;110;1963981;-73
2021/04/06 04:33:23;;;;;;;17.44;11.07;;;;;;;4.83;53.11;97900.59;360551;110;1964050;-72
2021/04/06 04:34:29;;;;;;;20.03;10.66;;;;;;;4.85;53.05;97911.91;313401;110;2863052;-72
2021/04/06 04:35:35;;;;;;;15.92;10.53;;;;;;;4.86;53.00;97912.72;322382;112;1963927;-72
2021/04/06 04:36:40;;;;;;;19.21;10.95;;;;;;;4.89;52.88;97914.15;354672;112;1960783;-72
2021/04/06 04:37:46;;;;;;;17.79;10.51;;;;;;;4.90;52.79;97919.30;359958;110;1960764;-72
2021/04/06 04:38:52;;;;;;;19.43;10.65;;;;;;;4.94;52.70;97908.98;330350;110;2590868;-72
2021/04/06 04:39:58;;;;;;;17.08;9.96;;;;;;;4.95;52.66;97918.64;349557;110;1960770;-72
2021/04/06 04:41:06;;;;;;;17.85;10.20;;;;;;;4.96;52.64;97913.09;361243;109;1960808;-72
2021/04/06 04:42:11;;;;;;;18.58;10.05;;;;;;;4.97;52.60;97920.07;342767;108;2323877;-72
2021/04/06 04:43:17;;;;;;;18.52;10.32;;;;;;;5.01;52.49;97917.81;348419;110;1959789;-72
2021/04/06 04:44:22;;;;;;;20.02;10.83;;;;;;;5.04;52.47;97922.73;365835;108;1961014;-72
2021/04/06 04:45:27;;;;;;;20.13;11.51;;;;;;;5.06;52.35;97918.81;361904;110;1960736;-72
2021/04/06 04:46:35;;;;;;;20.91;11.46;;;;;;;5.05;52.37;97914.50;333145;110;2509990;-72
2021/04/06 04:47:40;;;;;;;20.38;11.39;;;;;;;5.10;52.35;97915.70;344217;112;1961906;-72
2021/04/06 04:48:45;;;;;;;19.37;10.56;;;;;;;5.12;52.35;97916.31;355028;112;1962942;-72
2021/04/06 04:49:51;;;;;;;20.58;10.36;;;;;;;5.15;52.16;97916.70;361461;110;1961945;-72
2021/04/06 04:50:56;;;;;;;15.92;9.96;;;;;;;5.17;52.12;97919.98;362149;110;1961976;-73
2021/04/06 04:52:02;;;;;;;22.49;11.62;;;;;;;5.18;52.07;97920.80;362002;110;1962080;-72
2021/04/06 04:53:08;;;;;;;22.35;11.54;;;;;;;5.19;52.03;97909.89;341321;110;2227938;-72
2021/04/06 04:54:13;;;;;;;18.18;10.88;;;;;;;5.22;52.00;97919.36;336765;110;1963550;-72
2021/04/06 04:55:20;;;;;;;19.21;11.08;;;;;;;5.23;51.95;97923.66;362762;110;1961970;-72
2021/04/06 04:56:25;;;;;;;22.12;11.45;;;;;;;5.28;51.85;97918.48;362058;110;1961910;-72
2021/04/06 04:57:31;;;;;;;19.26;11.19;;;;;;;5.31;51.74;97911.88;322960;110;2684004;-73
2021/04/06 04:58:36;;;;;;;17.47;9.17;;;;;;;5.33;51.66;97924.02;339431;110;1962100;-72
2021/04/06 04:59:42;;;;;;;21.09;11.26;;;;;;;5.36;51.56;97925.45;361589;110;1961933;-72
2021/04/06 05:00:49;;;;;;;16.87;10.28;;;;;;;5.39;51.44;97922.33;360383;110;1961998;-72
2021/04/06 05:01:55;;;;;;;19.73;11.13;;;;;;;5.41;51.42;97921.08;327600;110;2606002;-72
2021/04/06 05:03:00;;;;;;;18.94;10.25;;;;;;;5.45;51.39;97922.30;339558;110;1962063;-72
2021/04/06 05:04:19;;;;;;;20.69;11.03;;;;;;;5.49;51.19;97912.78;363292;110;1962051;-72
2021/04/06 05:05:25;;;;;;;19.53;9.80;;;;;;;5.54;51.15;97930.08;338597;115;1963991;-72
2021/04/06 05:06:31;;;;;;;19.47;10.39;;;;;;;5.59;51.04;97924.90;343739;117;1963084;-72
2021/04/06 05:07:39;;;;;;;20.03;10.98;;;;;;;5.62;50.90;97933.31;313324;115;1962002;-72
2021/04/06 05:08:45;;;;;;;19.52;12.33;;;;;;;5.66;50.72;97936.36;345345;117;1961976;-72
2021/04/06 05:09:51;;;;;;;20.87;11.67;;;;;;;5.68;50.73;97936.97;347313;116;1962034;-72
2021/04/06 05:10:57;;;;;;;17.29;11.03;;;;;;;5.70;50.74;97933.05;317268;115;2553977;-72
2021/04/06 05:12:03;;;;;;;19.83;10.27;;;;;;;5.73;50.67;97935.28;343777;114;1962056;-72